Raith, Canada
Current Conditions -  °F | °C
As of 7:00 AM on Friday 28 Nov 2014 (Local Time) from CYQT Reporting Station
Overcast Overcast  
Wind Chill: -2°   Ceiling: 3100
Heat Index: -2°   Visibility: 15mi
Dew Point: -6°   Wind: 3mph
Humidity: 85%   Direction: 280°W
Pressure: 30.19"   Gusts: NA
Location:  48.83°N, 89.92°W
Report Text: CYQT 281200Z 28003KT 15SM OVC031 M19/M21 A3019 RMK SC8 SLP247
Loading
Personal Weather Stations






























Interactive Weather Map New forecast layout! Learn more

10-Day Weather Forecast

Advertisements
Track Severe Weather on mobile